createdAt,value
2022-09-23T00:01:01.872Z,100370.41
2022-09-23T00:02:06.464Z,100375.05
2022-09-23T00:03:10.582Z,100365.77
2022-09-23T00:04:13.570Z,100365.77
2022-09-23T00:05:17.174Z,100362.19
2022-09-23T00:06:22.764Z,100359.67
2022-09-23T00:07:25.996Z,100351.45
2022-09-23T00:08:29.654Z,100356.09
2022-09-23T00:09:32.855Z,100353.36
2022-09-23T00:10:38.409Z,100354.43
2022-09-23T00:11:41.470Z,100354.70
2022-09-23T00:12:44.420Z,100350.05
2022-09-23T00:13:49.205Z,100351.95
2022-09-23T00:14:52.283Z,100356.59
2022-09-23T00:15:55.228Z,100353.86
2022-09-23T00:16:58.390Z,100361.25
2022-09-23T00:18:01.529Z,100358.73
2022-09-23T00:19:04.754Z,100358.73
2022-09-23T00:20:08.979Z,100351.58
2022-09-23T00:21:14.154Z,100355.42
2022-09-23T00:22:17.171Z,100354.59
2022-09-23T00:23:20.126Z,100350.18
2022-09-23T00:24:23.895Z,100353.16
2022-09-23T00:25:28.751Z,100353.98
2022-09-23T00:26:31.835Z,100348.51
2022-09-23T00:27:35.772Z,100344.09
2022-09-23T00:28:38.925Z,100353.16
2022-09-23T00:29:41.946Z,100351.25
2022-09-23T00:30:45.264Z,100351.02
2022-09-23T00:31:48.239Z,100346.37
2022-09-23T00:32:52.407Z,100356.83
2022-09-23T00:33:57.270Z,100350.28
2022-09-23T00:35:00.540Z,100352.79
2022-09-23T00:36:05.927Z,100354.43
2022-09-23T00:37:09.184Z,100354.20
2022-09-23T00:38:13.515Z,100359.45
2022-09-23T00:39:16.477Z,100362.78
2022-09-23T00:40:19.665Z,100361.69
2022-09-23T00:41:24.350Z,100366.09
2022-09-23T00:42:27.394Z,100372.19
2022-09-23T00:43:52.233Z,100371.95
2022-09-23T00:44:59.689Z,100377.44
2022-09-23T00:46:03.227Z,100377.44
2022-09-23T00:47:12.798Z,100372.75
2022-09-23T00:48:20.612Z,100384.55
2022-09-23T00:49:27.012Z,100376.94
2022-09-23T00:50:36.343Z,100379.44
2022-09-23T00:51:42.849Z,100379.44
2022-09-23T00:52:47.156Z,100370.14
2022-09-23T00:53:51.547Z,100370.95
2022-09-23T00:54:56.842Z,100372.89
2022-09-23T00:56:02.746Z,100365.46
2022-09-23T00:57:06.454Z,100367.41
2022-09-23T00:58:14.255Z,100363.82
2022-09-23T00:59:18.940Z,100364.05
2022-09-23T01:00:22.987Z,100365.96
2022-09-23T01:01:26.361Z,100362.16
2022-09-23T01:02:29.573Z,100350.34
2022-09-23T01:03:32.492Z,100352.02
2022-09-23T01:04:36.143Z,100344.87
2022-09-23T01:05:39.607Z,100352.86
2022-09-23T01:06:42.582Z,100347.38
2022-09-23T01:07:45.888Z,100355.33
2022-09-23T01:08:49.417Z,100350.69
2022-09-23T01:09:53.037Z,100354.02
2022-09-23T01:11:08.598Z,100353.19
2022-09-23T01:12:22.151Z,100353.79
2022-09-23T01:13:54.166Z,100359.01
2022-09-23T01:15:09.855Z,100352.45
2022-09-23T01:16:35.063Z,100342.55
2022-09-23T01:17:50.612Z,100335.43
2022-09-23T01:19:05.769Z,100326.00
2022-09-23T01:20:21.524Z,100316.61
2022-09-23T01:21:34.197Z,100324.73
2022-09-23T01:22:43.644Z,100316.98
2022-09-23T01:24:19.030Z,100318.32
2022-09-23T01:25:55.323Z,100317.98
2022-09-23T01:27:01.928Z,100317.63
2022-09-23T01:28:08.716Z,100319.19
2022-09-23T01:29:44.862Z,100320.27
2022-09-23T01:30:51.437Z,100320.27
2022-09-23T01:32:19.267Z,100315.85
2022-09-23T01:33:25.875Z,100306.80
2022-09-23T01:34:56.029Z,100302.41
2022-09-23T01:36:35.735Z,100307.06
2022-09-23T01:38:00.379Z,100291.69
2022-09-23T01:39:10.398Z,100284.77
2022-09-23T01:40:40.303Z,100282.30
2022-09-23T01:41:50.978Z,100277.28
2022-09-23T01:42:57.584Z,100268.96
2022-09-23T01:44:13.416Z,100272.91
2022-09-23T01:45:38.549Z,100267.59
2022-09-23T01:46:51.199Z,100277.83
2022-09-23T01:47:57.575Z,100278.56
2022-09-23T01:49:19.475Z,100277.39
2022-09-23T01:50:47.275Z,100278.09
2022-09-23T01:51:56.659Z,100277.14
2022-09-23T01:53:03.082Z,100265.02
2022-09-23T01:54:32.245Z,100270.15
2022-09-23T01:55:38.378Z,100270.38
2022-09-23T01:56:51.875Z,100251.70
2022-09-23T01:58:01.973Z,100252.77
2022-09-23T01:59:26.845Z,100253.23
2022-09-23T02:00:34.330Z,100250.99
2022-09-23T02:01:55.843Z,100256.09
2022-09-23T02:03:09.733Z,100257.16
2022-09-23T02:04:16.932Z,100255.72
2022-09-23T02:05:29.550Z,100266.06
2022-09-23T02:06:36.070Z,100264.42
2022-09-23T02:07:50.630Z,100258.11
2022-09-23T02:08:59.785Z,100259.78
2022-09-23T02:10:09.097Z,100260.02
2022-09-23T02:11:14.776Z,100269.06
2022-09-23T02:12:20.708Z,100275.38
2022-09-23T02:13:28.995Z,100271.80
2022-09-23T02:14:38.362Z,100275.11
2022-09-23T02:15:44.834Z,100277.01
2022-09-23T02:16:51.237Z,100274.27
2022-09-23T02:17:58.340Z,100273.20
2022-09-23T02:19:10.991Z,100272.38
2022-09-23T02:20:19.500Z,100280.35
2022-09-23T02:21:26.137Z,100274.87
2022-09-23T02:22:41.635Z,100274.65
2022-09-23T02:23:50.033Z,100272.75
2022-09-23T02:24:54.693Z,100279.06
2022-09-23T02:26:16.583Z,100278.83
2022-09-23T02:27:41.145Z,100275.02
2022-09-23T02:29:17.543Z,100284.91
2022-09-23T02:30:26.189Z,100280.27
2022-09-23T02:31:44.884Z,100280.27
2022-09-23T02:32:57.510Z,100272.28
2022-09-23T02:34:07.158Z,100278.59
2022-09-23T02:35:20.898Z,100273.95
2022-09-23T02:36:34.072Z,100274.80
2022-09-23T02:37:43.391Z,100270.62
2022-09-23T02:38:50.692Z,100270.62
2022-09-23T02:40:24.563Z,100271.45
2022-09-23T02:41:36.932Z,100276.09
2022-09-23T02:43:04.701Z,100274.45
2022-09-23T02:44:11.196Z,100278.22
2022-09-23T02:45:14.624Z,100279.75
2022-09-23T02:46:18.341Z,100280.84
2022-09-23T02:47:24.490Z,100287.61
2022-09-23T02:48:31.081Z,100285.11
2022-09-23T02:49:35.922Z,100292.73
2022-09-23T02:50:39.290Z,100294.03
2022-09-23T02:51:42.221Z,100309.05
2022-09-23T02:52:46.410Z,100309.50
2022-09-23T02:53:49.233Z,100322.61
2022-09-23T02:54:52.822Z,100324.73
2022-09-23T02:55:56.290Z,100309.86
2022-09-23T02:57:02.226Z,100309.86
2022-09-23T02:58:05.658Z,100311.77
2022-09-23T02:59:10.156Z,100303.78
2022-09-23T03:00:14.546Z,100303.78
2022-09-23T03:01:38.728Z,100291.16
2022-09-23T03:03:03.890Z,100296.89
2022-09-23T03:04:10.216Z,100298.53
2022-09-23T03:05:21.430Z,100309.73
2022-09-23T03:06:31.156Z,100309.73
2022-09-23T03:07:58.044Z,100318.17
2022-09-23T03:09:04.569Z,100323.03
2022-09-23T03:10:25.988Z,100324.36
2022-09-23T03:11:28.978Z,100316.60
2022-09-23T03:12:47.709Z,100317.54
2022-09-23T03:14:10.961Z,100302.90
2022-09-23T03:15:37.138Z,100305.77
2022-09-23T03:16:49.854Z,100305.02
2022-09-23T03:17:56.480Z,100315.22
2022-09-23T03:19:02.924Z,100321.87
2022-09-23T03:20:09.627Z,100324.44
2022-09-23T03:21:18.893Z,100327.64
2022-09-23T03:22:31.403Z,100344.27
2022-09-23T03:23:36.736Z,100343.43
2022-09-23T03:24:44.063Z,100342.59
2022-09-23T03:25:49.318Z,100349.73
2022-09-23T03:26:53.506Z,100341.31
2022-09-23T03:27:58.285Z,100344.88
2022-09-23T03:29:04.899Z,100345.72
2022-09-23T03:30:09.151Z,100347.62
2022-09-23T03:31:13.784Z,100333.11
2022-09-23T03:32:19.665Z,100333.11
2022-09-23T03:33:28.782Z,100339.41
2022-09-23T03:34:33.551Z,100336.69
2022-09-23T03:35:41.849Z,100333.73
2022-09-23T03:36:51.380Z,100335.14
2022-09-23T03:38:03.260Z,100336.82
2022-09-23T03:39:09.870Z,100333.61
2022-09-23T03:40:27.076Z,100334.22
2022-09-23T03:41:37.524Z,100334.00
2022-09-23T03:42:41.327Z,100336.51
2022-09-23T03:43:45.468Z,100334.36
2022-09-23T03:44:53.482Z,100334.97
2022-09-23T03:45:57.057Z,100338.28
2022-09-23T03:47:02.410Z,100336.16
2022-09-23T03:48:06.677Z,100343.89
2022-09-23T03:49:19.367Z,100342.83
2022-09-23T03:50:22.352Z,100344.27
2022-09-23T03:51:25.217Z,100344.86
2022-09-23T03:52:28.148Z,100341.89
2022-09-23T03:53:31.090Z,100344.41
2022-09-23T03:54:33.897Z,100345.24
2022-09-23T03:55:38.817Z,100342.51
2022-09-23T03:56:41.713Z,100345.02
2022-09-23T03:57:45.258Z,100347.75
2022-09-23T03:58:48.401Z,100348.56
2022-09-23T03:59:51.576Z,100343.92
2022-09-23T04:00:55.082Z,100350.23
2022-09-23T04:01:59.069Z,100349.39
2022-09-23T04:03:01.954Z,100347.27
2022-09-23T04:04:04.845Z,100348.11
2022-09-23T04:05:09.380Z,100350.84
2022-09-23T04:06:12.913Z,100345.37
2022-09-23T04:07:16.273Z,100337.16
2022-09-23T04:08:19.198Z,100344.31
2022-09-23T04:09:22.643Z,100341.31
2022-09-23T04:10:25.698Z,100338.36
2022-09-23T04:11:28.665Z,100334.34
2022-09-23T04:12:31.649Z,100339.55
2022-09-23T04:13:34.562Z,100338.27
2022-09-23T04:14:37.437Z,100337.20
2022-09-23T04:15:40.593Z,100337.20
2022-09-23T04:16:44.131Z,100336.14
2022-09-23T04:17:47.140Z,100338.03
2022-09-23T04:18:50.383Z,100335.52
2022-09-23T04:19:53.160Z,100330.28
2022-09-23T04:20:59.464Z,100328.86
2022-09-23T04:22:02.990Z,100328.86
2022-09-23T04:23:06.098Z,100337.30
2022-09-23T04:24:10.149Z,100324.91
2022-09-23T04:25:13.198Z,100319.92
2022-09-23T04:26:18.326Z,100309.20
2022-09-23T04:27:21.320Z,100308.37
2022-09-23T04:28:24.391Z,100313.00
2022-09-23T04:29:27.327Z,100308.63
2022-09-23T04:30:30.513Z,100299.58
2022-09-23T04:31:34.238Z,100302.32
2022-09-23T04:32:37.316Z,100297.91
2022-09-23T04:33:40.493Z,100298.98
2022-09-23T04:34:44.231Z,100300.03
2022-09-23T04:35:50.617Z,100300.30
2022-09-23T04:36:53.594Z,100303.25
2022-09-23T04:37:56.447Z,100304.31
2022-09-23T04:38:59.303Z,100302.87
2022-09-23T04:40:02.703Z,100302.29
2022-09-23T04:41:10.765Z,100295.38
2022-09-23T04:42:13.730Z,100297.27
2022-09-23T04:43:17.217Z,100295.63
2022-09-23T04:44:20.744Z,100286.81
2022-09-23T04:45:23.587Z,100297.75
2022-09-23T04:46:26.682Z,100297.98
2022-09-23T04:47:31.493Z,100290.03
2022-09-23T04:48:36.471Z,100287.52
2022-09-23T04:49:40.141Z,100292.60
2022-09-23T04:50:43.208Z,100283.20
2022-09-23T04:51:47.367Z,100284.52
2022-09-23T04:52:50.391Z,100287.48
2022-09-23T04:53:54.336Z,100283.91
2022-09-23T04:54:57.283Z,100280.11
2022-09-23T04:56:06.666Z,100283.69
2022-09-23T04:57:10.455Z,100282.62
2022-09-23T04:58:13.466Z,100285.10
2022-09-23T04:59:16.558Z,100287.84
2022-09-23T05:00:21.086Z,100293.30
2022-09-23T05:01:26.424Z,100290.34
2022-09-23T05:02:29.666Z,100288.45
2022-09-23T05:03:34.491Z,100292.02
2022-09-23T05:04:37.638Z,100292.02
2022-09-23T05:05:40.816Z,100297.48
2022-09-23T05:06:44.936Z,100297.48
2022-09-23T05:07:48.223Z,100293.91
2022-09-23T05:08:54.228Z,100288.67
2022-09-23T05:09:57.300Z,100286.77
2022-09-23T05:11:02.273Z,100287.84
2022-09-23T05:12:05.631Z,100295.45
2022-09-23T05:13:09.229Z,100287.48
2022-09-23T05:14:12.615Z,100284.39
2022-09-23T05:15:15.753Z,100284.61
2022-09-23T05:16:19.371Z,100281.48
2022-09-23T05:17:23.433Z,100274.38
2022-09-23T05:18:28.086Z,100276.50
2022-09-23T05:19:31.196Z,100278.40
2022-09-23T05:20:34.233Z,100285.98
2022-09-23T05:21:38.595Z,100281.36
2022-09-23T05:22:41.617Z,100293.96
2022-09-23T05:23:52.160Z,100298.37
2022-09-23T05:24:55.174Z,100301.94
2022-09-23T05:26:01.308Z,100306.34
2022-09-23T05:27:06.556Z,100305.28
2022-09-23T05:28:09.672Z,100311.33
2022-09-23T05:29:12.835Z,100305.64
2022-09-23T05:30:16.083Z,100306.70
2022-09-23T05:31:21.501Z,100301.23
2022-09-23T05:32:25.859Z,100300.40
2022-09-23T05:33:29.661Z,100294.09
2022-09-23T05:34:32.571Z,100283.64
2022-09-23T05:35:35.828Z,100284.70
2022-09-23T05:36:39.363Z,100292.54
2022-09-23T05:37:42.331Z,100283.11
2022-09-23T05:38:45.333Z,100293.47
2022-09-23T05:39:48.366Z,100301.27
2022-09-23T05:40:58.992Z,100299.23
2022-09-23T05:42:02.051Z,100292.93
2022-09-23T05:43:05.002Z,100305.75
2022-09-23T05:44:08.101Z,100306.59
2022-09-23T05:45:11.095Z,100304.70
2022-09-23T05:46:17.305Z,100311.84
2022-09-23T05:47:20.310Z,100317.08
2022-09-23T05:48:23.249Z,100313.28
2022-09-23T05:49:42.546Z,100311.36
2022-09-23T05:50:31.081Z,100319.34
2022-09-23T05:51:35.416Z,100309.24
2022-09-23T05:52:38.564Z,100310.70
2022-09-23T05:53:44.881Z,100306.88
2022-09-23T05:54:49.447Z,100314.63
2022-09-23T05:55:54.036Z,100320.92
2022-09-23T05:56:59.268Z,100314.41
2022-09-23T05:58:02.110Z,100316.05
2022-09-23T05:59:05.691Z,100314.98
2022-09-23T06:00:10.051Z,100317.72
2022-09-23T06:01:25.935Z,100316.88
2022-09-23T06:02:29.958Z,100322.60
2022-09-23T06:03:33.013Z,100322.60
2022-09-23T06:04:35.908Z,100321.52
2022-09-23T06:05:39.138Z,100322.34
2022-09-23T06:06:42.882Z,100316.88
2022-09-23T06:07:45.723Z,100317.72
2022-09-23T06:08:48.744Z,100313.09
2022-09-23T06:09:53.506Z,100322.34
2022-09-23T06:10:56.582Z,100323.44
2022-09-23T06:11:59.575Z,100325.55
2022-09-23T06:13:02.654Z,100320.53
2022-09-23T06:14:06.251Z,100321.63
2022-09-23T06:15:10.222Z,100316.38
2022-09-23T06:16:15.852Z,100313.88
2022-09-23T06:17:18.907Z,100316.61
2022-09-23T06:18:22.092Z,100323.74
2022-09-23T06:19:25.115Z,100313.65
2022-09-23T06:20:28.575Z,100317.22
2022-09-23T06:21:33.355Z,100324.58
2022-09-23T06:22:39.932Z,100316.38
2022-09-23T06:23:44.440Z,100317.44
2022-09-23T06:24:47.638Z,100320.17
2022-09-23T06:25:50.642Z,100319.34
2022-09-23T06:26:54.712Z,100316.24
2022-09-23T06:27:58.747Z,100324.44
2022-09-23T06:29:02.607Z,100321.92
2022-09-23T06:30:06.688Z,100333.47
2022-09-23T06:31:14.768Z,100325.02
2022-09-23T06:32:19.341Z,100332.16
2022-09-23T06:33:33.778Z,100323.52
2022-09-23T06:34:27.245Z,100330.41
2022-09-23T06:35:32.113Z,100321.15
2022-09-23T06:36:43.045Z,100327.45
2022-09-23T06:37:40.163Z,100318.20
2022-09-23T06:38:44.417Z,100311.42
2022-09-23T06:39:48.111Z,100312.64
2022-09-23T06:40:52.254Z,100314.67
2022-09-23T06:41:55.433Z,100316.71
2022-09-23T06:43:01.114Z,100312.44
2022-09-23T06:44:04.182Z,100316.98
2022-09-23T06:45:09.863Z,100310.81
2022-09-23T06:46:15.747Z,100314.16
2022-09-23T06:47:18.782Z,100307.98
2022-09-23T06:48:24.198Z,100303.12
2022-09-23T06:49:27.286Z,100302.64
2022-09-23T06:50:30.496Z,100304.92
2022-09-23T06:51:34.078Z,100304.45
2022-09-23T06:52:37.159Z,100292.22
2022-09-23T06:53:40.362Z,100302.67
2022-09-23T06:54:43.347Z,100297.81
2022-09-23T06:55:46.368Z,100297.33
2022-09-23T06:56:49.711Z,100294.14
2022-09-23T06:57:54.957Z,100300.19
2022-09-23T06:58:58.508Z,100299.96
2022-09-23T07:00:01.976Z,100284.99
2022-09-23T07:01:10.545Z,100283.67
2022-09-23T07:02:13.676Z,100285.12
2022-09-23T07:03:16.886Z,100293.67
2022-09-23T07:04:19.986Z,100304.39
2022-09-23T07:05:22.988Z,100295.92
2022-09-23T07:06:25.878Z,100286.65
2022-09-23T07:07:31.110Z,100294.02
2022-09-23T07:08:35.090Z,100287.26
2022-09-23T07:09:38.192Z,100284.52
2022-09-23T07:10:41.168Z,100285.36
2022-09-23T07:11:46.224Z,100286.20
2022-09-23T07:12:49.310Z,100285.13
2022-09-23T07:13:52.364Z,100282.39
2022-09-23T07:14:56.716Z,100280.46
2022-09-23T07:16:01.605Z,100277.27
2022-09-23T07:17:04.833Z,100278.10
2022-09-23T07:18:07.912Z,100272.40
2022-09-23T07:19:11.842Z,100275.14
2022-09-23T07:20:17.379Z,100270.23
2022-09-23T07:21:20.635Z,100262.03
2022-09-23T07:22:24.611Z,100269.17
2022-09-23T07:23:27.547Z,100274.65
2022-09-23T07:24:30.323Z,100269.17
2022-09-23T07:25:33.705Z,100275.94
2022-09-23T07:26:36.586Z,100272.62
2022-09-23T07:27:39.636Z,100272.86
2022-09-23T07:28:42.791Z,100268.71
2022-09-23T07:29:50.472Z,100274.19
2022-09-23T07:30:59.858Z,100278.82
2022-09-23T07:32:10.768Z,100275.48
2022-09-23T07:33:15.932Z,100270.49
2022-09-23T07:34:11.015Z,100275.58
2022-09-23T07:35:14.004Z,100277.14
2022-09-23T07:36:18.681Z,100277.36
2022-09-23T07:37:21.737Z,100273.80
2022-09-23T07:38:26.562Z,100273.80
2022-09-23T07:39:29.527Z,100278.42
2022-09-23T07:40:32.456Z,100272.73
2022-09-23T07:41:35.772Z,100274.41
2022-09-23T07:42:40.299Z,100275.46
2022-09-23T07:43:44.156Z,100274.63
2022-09-23T07:44:47.389Z,100277.36
2022-09-23T07:45:51.468Z,100273.80
2022-09-23T07:46:54.543Z,100280.09
2022-09-23T07:47:57.542Z,100272.95
2022-09-23T07:49:01.533Z,100272.95
2022-09-23T07:50:07.093Z,100275.95
2022-09-23T07:51:12.921Z,100274.63
2022-09-23T07:52:16.596Z,100280.09
2022-09-23T07:53:20.018Z,100282.61
2022-09-23T07:54:24.974Z,100283.22
2022-09-23T07:55:28.118Z,100280.22
2022-09-23T07:56:31.180Z,100282.73
2022-09-23T07:57:34.474Z,100282.50
2022-09-23T07:58:37.538Z,100282.84
2022-09-23T07:59:42.415Z,100272.97
2022-09-23T08:00:45.645Z,100274.30
2022-09-23T08:01:52.076Z,100278.32
2022-09-23T08:02:55.116Z,100279.39
2022-09-23T08:04:00.223Z,100277.75
2022-09-23T08:05:05.259Z,100278.55
2022-09-23T08:06:11.713Z,100292.23
2022-09-23T08:07:14.634Z,100284.28
2022-09-23T08:08:17.631Z,100292.72
2022-09-23T08:09:23.415Z,100292.95
2022-09-23T08:10:26.462Z,100290.20
2022-09-23T08:11:29.737Z,100298.67
2022-09-23T08:12:32.809Z,100293.20
2022-09-23T08:13:36.639Z,100295.10
2022-09-23T08:14:39.661Z,100291.53
2022-09-23T08:15:46.261Z,100289.62
2022-09-23T08:16:50.559Z,100283.90
2022-09-23T08:17:53.637Z,100276.53
2022-09-23T08:18:56.749Z,100272.73
2022-09-23T08:19:59.690Z,100285.12
2022-09-23T08:21:03.606Z,100281.06
2022-09-23T08:22:06.618Z,100279.77
2022-09-23T08:23:11.028Z,100282.02
2022-09-23T08:24:19.170Z,100279.89
2022-09-23T08:25:23.191Z,100285.13
2022-09-23T08:26:26.996Z,100273.09
2022-09-23T08:27:31.888Z,100284.64
2022-09-23T08:28:35.462Z,100283.58
2022-09-23T08:29:38.348Z,100283.58
2022-09-23T08:30:41.617Z,100283.34
2022-09-23T08:31:45.295Z,100272.62
2022-09-23T08:32:50.913Z,100280.00
2022-09-23T08:33:57.849Z,100278.10
2022-09-23T08:35:01.396Z,100278.10
2022-09-23T08:36:04.743Z,100270.73
2022-09-23T08:37:11.109Z,100271.80
2022-09-23T08:38:14.173Z,100272.02
2022-09-23T08:39:19.664Z,100276.08
2022-09-23T08:40:24.065Z,100277.98
2022-09-23T08:41:45.651Z,100288.93
2022-09-23T08:42:49.164Z,100282.62
2022-09-23T08:43:58.515Z,100282.62
2022-09-23T08:45:04.481Z,100286.42
2022-09-23T08:46:13.349Z,100282.84
2022-09-23T08:47:32.113Z,100277.37
2022-09-23T08:48:38.720Z,100281.17
2022-09-23T08:50:02.935Z,100282.02
2022-09-23T08:51:09.261Z,100282.02
2022-09-23T08:52:15.806Z,100282.62
2022-09-23T08:53:31.192Z,100285.13
2022-09-23T08:54:34.269Z,100282.39
2022-09-23T08:55:51.873Z,100287.86
2022-09-23T08:56:59.100Z,100287.03
2022-09-23T08:58:25.659Z,100282.39
2022-09-23T08:59:43.596Z,100275.25
2022-09-23T09:01:06.966Z,100274.41
2022-09-23T09:02:22.516Z,100282.84
2022-09-23T09:03:29.188Z,100280.83
2022-09-23T09:04:38.954Z,100273.69
2022-09-23T09:05:50.802Z,100276.42
2022-09-23T09:07:34.861Z,100278.32
2022-09-23T09:08:16.018Z,100278.93
2022-09-23T09:09:28.654Z,100271.78
2022-09-23T09:10:35.291Z,100274.52
2022-09-23T09:11:45.436Z,100267.61
2022-09-23T09:13:00.488Z,100265.13
2022-09-23T09:14:34.065Z,100266.20
2022-09-23T09:15:43.644Z,100270.60
2022-09-23T09:17:02.687Z,100267.03
2022-09-23T09:18:07.223Z,100273.34
2022-09-23T09:19:21.783Z,100268.70
2022-09-23T09:20:31.847Z,100276.07
2022-09-23T09:26:34.665Z,100277.95
2022-09-23T09:27:40.860Z,100275.09
2022-09-23T09:28:47.894Z,100277.22
2022-09-23T09:29:54.266Z,100277.45
2022-09-23T09:31:03.938Z,100283.75
2022-09-23T09:32:16.708Z,100284.59
2022-09-23T09:33:23.333Z,100282.92
2022-09-23T09:34:36.686Z,100283.75
2022-09-23T09:35:49.904Z,100286.75
2022-09-23T09:37:20.559Z,100288.64
2022-09-23T09:38:23.556Z,100291.61
2022-09-23T09:39:27.309Z,100290.55
2022-09-23T09:40:30.400Z,100294.12
2022-09-23T09:41:33.347Z,100289.00
2022-09-23T09:42:40.695Z,100292.92
2022-09-23T09:43:48.554Z,100292.92
2022-09-23T09:45:03.897Z,100281.75
2022-09-23T09:46:22.507Z,100294.14
2022-09-23T09:47:32.118Z,100284.84
2022-09-23T09:48:41.243Z,100280.46
2022-09-23T09:49:50.516Z,100284.84
2022-09-23T09:50:55.446Z,100283.78
2022-09-23T09:52:22.129Z,100286.89
2022-09-23T09:53:27.880Z,100278.42
2022-09-23T09:54:30.877Z,100292.95
2022-09-23T09:55:34.179Z,100276.30
2022-09-23T09:56:37.526Z,100293.78
2022-09-23T09:57:53.146Z,100281.77
2022-09-23T09:59:02.637Z,100290.20
2022-09-23T10:00:27.481Z,100292.11
2022-09-23T10:01:32.664Z,100290.47
2022-09-23T10:02:38.642Z,100292.11
2022-09-23T10:03:44.301Z,100285.57
2022-09-23T10:04:56.666Z,100288.69
2022-09-23T10:05:59.899Z,100289.88
2022-09-23T10:07:14.959Z,100285.81
2022-09-23T10:08:27.296Z,100288.93
2022-09-23T10:09:36.572Z,100285.13
2022-09-23T10:10:43.514Z,100293.08
2022-09-23T10:12:05.125Z,100282.73
2022-09-23T10:13:15.639Z,100281.41
2022-09-23T10:14:18.441Z,100284.76
2022-09-23T10:15:40.192Z,100284.76
2022-09-23T10:16:43.795Z,100283.09
2022-09-23T10:17:50.733Z,100282.25
2022-09-23T10:18:55.936Z,100276.78
2022-09-23T10:20:02.406Z,100272.98
2022-09-23T10:21:13.930Z,100277.38
2022-09-23T10:22:27.409Z,100277.38
2022-09-23T10:23:32.167Z,100271.91
2022-09-23T10:24:38.157Z,100282.86
2022-09-23T10:25:42.334Z,100283.20
2022-09-23T10:26:48.907Z,100281.08
2022-09-23T10:27:51.949Z,100276.20
2022-09-23T10:28:55.355Z,100283.58
2022-09-23T10:30:01.591Z,100289.28
2022-09-23T10:32:38.097Z,100297.53
2022-09-23T10:33:49.962Z,100293.70
2022-09-23T10:35:00.239Z,100292.62
2022-09-23T10:36:03.372Z,100292.86
2022-09-23T10:37:09.942Z,100282.97
2022-09-23T10:38:12.993Z,100286.55
2022-09-23T10:39:29.962Z,100280.01
2022-09-23T10:40:55.104Z,100287.95
2022-09-23T10:42:32.232Z,100284.42
2022-09-23T10:44:16.680Z,100278.34
2022-09-23T10:45:44.686Z,100290.12
2022-09-23T10:47:00.298Z,100289.52
2022-09-23T10:48:28.055Z,100294.16
2022-09-23T10:49:46.206Z,100302.36
2022-09-23T10:50:51.145Z,100294.16
2022-09-23T10:52:16.014Z,100293.09
2022-09-23T10:53:28.677Z,100291.19
2022-09-23T10:54:47.185Z,100295.37
2022-09-23T10:56:20.606Z,100294.27
2022-09-23T10:57:45.048Z,100288.80
2022-09-23T10:58:54.435Z,100297.50
2022-09-23T11:00:01.430Z,100293.09
2022-09-23T11:01:36.605Z,100298.56
2022-09-23T11:02:58.067Z,100306.55
2022-09-23T11:04:36.430Z,100311.78
2022-09-23T11:05:58.101Z,100315.33
2022-09-23T11:07:17.672Z,100308.79
2022-09-23T11:08:29.846Z,100315.33
2022-09-23T11:09:53.146Z,100310.95
2022-09-23T11:11:15.144Z,100314.75
2022-09-23T11:12:52.390Z,100317.72
2022-09-23T11:14:18.581Z,100315.21
2022-09-23T11:15:27.896Z,100317.38
2022-09-23T11:16:51.741Z,100320.56
2022-09-23T11:18:32.387Z,100313.45
2022-09-23T11:20:13.576Z,100302.73
2022-09-23T11:21:44.425Z,100309.27
2022-09-23T11:22:57.091Z,100310.11
2022-09-23T11:24:11.321Z,100307.37
2022-09-23T11:25:33.072Z,100303.31
2022-09-23T11:26:56.433Z,100309.16
2022-09-23T11:28:05.780Z,100304.03
2022-09-23T11:29:15.711Z,100310.23
2022-09-23T11:30:19.766Z,100304.30
2022-09-23T11:31:55.113Z,100309.05
2022-09-23T11:33:18.973Z,100309.20
2022-09-23T11:34:54.851Z,100313.70
2022-09-23T11:36:03.321Z,100315.48
2022-09-23T11:37:18.870Z,100316.42
2022-09-23T11:38:25.624Z,100314.63
2022-09-23T11:39:38.403Z,100310.59
2022-09-23T11:40:46.517Z,100311.17
2022-09-23T11:41:53.645Z,100313.91
2022-09-23T11:43:00.283Z,100314.17
2022-09-23T11:44:12.783Z,100318.81
2022-09-23T11:45:28.892Z,100317.48
2022-09-23T11:46:41.513Z,100316.65
2022-09-23T11:47:53.757Z,100327.14
2022-09-23T11:49:00.153Z,100328.55
2022-09-23T11:50:27.230Z,100333.80
2022-09-23T11:52:07.148Z,100327.85
2022-09-23T11:53:25.400Z,100326.06
2022-09-23T11:54:37.664Z,100325.09
2022-09-23T11:55:55.618Z,100318.28
2022-09-23T11:56:55.504Z,100319.95
2022-09-23T11:58:20.078Z,100318.63
2022-09-23T11:59:36.609Z,100320.39
2022-09-23T12:00:36.214Z,100322.17
2022-09-23T12:01:46.149Z,100331.33
2022-09-23T12:03:08.676Z,100326.45
2022-09-23T12:04:27.605Z,100328.95
2022-09-23T12:05:34.562Z,100328.22
2022-09-23T12:06:44.210Z,100325.81
2022-09-23T12:08:05.387Z,100322.00
2022-09-23T12:09:14.733Z,100330.22
2022-09-23T12:10:18.849Z,100330.22
2022-09-23T12:11:27.957Z,100332.97
2022-09-23T12:12:49.393Z,100330.22
2022-09-23T12:14:23.023Z,100328.55
2022-09-23T12:15:35.760Z,100332.36
2022-09-23T12:16:53.157Z,100329.05
2022-09-23T12:18:11.958Z,100324.64
2022-09-23T12:19:51.891Z,100326.55
2022-09-23T12:21:01.609Z,100326.55
2022-09-23T12:22:32.421Z,100323.80
2022-09-23T12:23:50.772Z,100331.19
2022-09-23T12:25:09.860Z,100328.45
2022-09-23T12:26:17.077Z,100324.87
2022-09-23T12:27:27.469Z,100324.04
2022-09-23T12:28:37.224Z,100328.95
2022-09-23T12:29:41.469Z,100318.45
2022-09-23T12:30:47.442Z,100324.67
2022-09-23T12:31:50.661Z,100322.44
2022-09-23T12:33:13.519Z,100314.67
2022-09-23T12:35:35.175Z,100321.00
2022-09-23T12:36:39.433Z,100320.42
2022-09-23T12:37:42.956Z,100319.02
2022-09-23T12:38:52.763Z,100314.60
2022-09-23T12:40:02.261Z,100313.77
2022-09-23T12:41:37.180Z,100314.60
2022-09-23T12:42:46.505Z,100306.98
2022-09-23T12:43:56.053Z,100308.99
2022-09-23T12:45:30.110Z,100316.48
2022-09-23T12:46:33.282Z,100312.77
2022-09-23T12:47:38.543Z,100317.89
2022-09-23T12:48:47.726Z,100322.37
2022-09-23T12:49:52.772Z,100326.05
2022-09-23T12:50:59.536Z,100323.16
2022-09-23T12:52:18.100Z,100320.52
2022-09-23T12:53:36.667Z,100326.09
2022-09-23T12:54:41.714Z,100321.81
2022-09-23T12:55:46.535Z,100328.47
2022-09-23T12:56:58.245Z,100332.37
2022-09-23T12:58:01.374Z,100335.23
2022-09-23T12:59:28.818Z,100327.10
2022-09-23T13:00:34.269Z,100327.46
2022-09-23T13:01:38.283Z,100324.21
2022-09-23T13:02:52.835Z,100322.06
2022-09-23T13:04:16.463Z,100332.20
2022-09-23T13:05:44.486Z,100322.30
2022-09-23T13:06:56.862Z,100325.55
2022-09-23T13:08:09.627Z,100324.36
2022-09-23T13:09:19.335Z,100330.35
2022-09-23T13:10:28.909Z,100333.57
2022-09-23T13:11:32.839Z,100334.67
2022-09-23T13:12:39.047Z,100342.27